LS Concorde — ZDHJ7 — position and weather

sailwx.info

Track history (hours):
 
Tides and Currents Weather Stations Pressure Air Temp Water Temp Dewpoint Dewpoint Depression Visibility Wind Speed Wind Dir Waves Ship Positions

LS Concorde

Last reported at 2014-Oct-30 23:33 UTC. Time now 2014-Oct-30 23:46 UTC.
Position N 49°28' E 000°07'.

Length 99 m; draft 5.2 m.

Type: Tanker. MMSI: 236329000.

Date/timePositionNaut miles runAvg speedWind from/ knotsBaromVisibWave heightAir tempDewpointWater temp
2014-Oct-30 23:33N 49°28' E 000°07'0 0.0
2014-Oct-30 22:33N 49°28' E 000°07'0 0.0
2014-Oct-30 21:33N 49°28' E 000°07'0 0.0
2014-Oct-30 20:33N 49°28' E 000°07'0 0.0
2014-Oct-30 19:30N 49°28' E 000°07'2 1.7
2014-Oct-30 18:33N 49°29' E 000°05'9 8.7
2014-Oct-30 17:33N 49°32' W 000°08'4 3.9
2014-Oct-30 16:33N 49°35' W 000°10'6 5.1
2014-Oct-30 15:21N 49°41' W 000°10'63 7.2
2014-Oct-30 06:33N 50°33' E 000°48'9 8.6
2014-Oct-30 05:33N 50°41' E 000°52'10 9.9
2014-Oct-30 04:33N 50°47' E 001°05'9 9.3
2014-Oct-30 03:33N 50°52' E 001°17'9 8.8
2014-Oct-30 02:33N 50°60' E 001°24'1010.4
2014-Oct-30 01:34N 51°07' E 001°36'1211.5
2014-Oct-30 00:33N 51°16' E 001°48'1212.4
2014-Oct-29 23:34N 51°26' E 002°01'1212.0
2014-Oct-29 22:33N 51°35' E 002°13'14 2.4
2014-Oct-29 16:33N 51°37' E 002°35'1211.7
2014-Oct-29 15:32N 51°26' E 002°38'0 0.0
2014-Oct-29 14:26N 51°26' E 002°39'0 0.1
2014-Oct-29 13:29N 51°25' E 002°38'0 0.0
2014-Oct-29 12:20N 51°25' E 002°38'0 0.0
2014-Oct-29 11:32N 51°25' E 002°38'0 0.0
2014-Oct-29 10:32N 51°25' E 002°38'0 0.0
2014-Oct-29 09:32N 51°25' E 002°38'0 0.1
2014-Oct-29 08:32N 51°26' E 002°38'0 0.0
2014-Oct-29 07:32N 51°26' E 002°39'0 0.0
2014-Oct-29 06:29N 51°26' E 002°39'0 0.0
2014-Oct-29 05:32N 51°26' E 002°39'0 0.0
2014-Oct-29 04:29N 51°26' E 002°39'0 0.0
2014-Oct-29 03:29N 51°26' E 002°39'0 0.0
2014-Oct-29 02:26N 51°26' E 002°39'0 0.0
2014-Oct-29 01:11N 51°26' E 002°39'0 0.2
2014-Oct-29 00:32N 51°25' E 002°38'0 0.0
2014-Oct-28 23:26N 51°25' E 002°38'0 0.0
2014-Oct-28 22:32N 51°25' E 002°38'0 0.1
2014-Oct-28 21:26N 51°26' E 002°38'0 0.0
2014-Oct-28 19:32N 51°26' E 002°38'0 0.0
2014-Oct-28 18:32N 51°26' E 002°39'3 2.7
2014-Oct-28 17:32N 51°23' E 002°41'1010.0
2014-Oct-28 16:33N 51°22' E 002°57'1210.6
2014-Oct-28 15:25N 51°24' E 003°16'8 9.7
2014-Oct-28 14:33N 51°25' E 003°29'8 8.1
2014-Oct-28 13:33N 51°24' E 003°42'6 6.1
2014-Oct-28 12:34N 51°20' E 003°49'4 3.8
2014-Oct-28 11:34N 51°16' E 003°50'4 0.1
2014-Oct-27 00:34N 51°12' E 003°48'3 2.5
2014-Oct-26 23:28N 51°09' E 003°47'0 0.0
2014-Oct-26 22:28N 51°09' E 003°47'0 0.0
2014-Oct-26 21:10N 51°09' E 003°47'0 0.0
2014-Oct-26 20:22N 51°09' E 003°47'0 0.0
2014-Oct-26 19:22N 51°09' E 003°47'0 0.0
2014-Oct-26 18:28N 51°09' E 003°47'0 0.0
2014-Oct-26 17:28N 51°09' E 003°47'0 0.0
2014-Oct-26 16:22N 51°09' E 003°47'0 0.0
2014-Oct-26 15:28N 51°09' E 003°47'0 0.0
2014-Oct-26 14:28N 51°09' E 003°47'0 0.0
2014-Oct-26 13:28N 51°09' E 003°47'0 0.0
2014-Oct-26 12:33N 51°09' E 003°47'2 2.3
2014-Oct-26 11:33N 51°11' E 003°48'7 6.5
2014-Oct-26 10:34N 51°18' E 003°50'2 2.4
2014-Oct-26 09:34N 51°20' E 003°49'9 8.7
2014-Oct-26 08:33N 51°26' E 003°39'8 8.3
2014-Oct-26 07:33N 51°30' E 003°27'1111.0
2014-Oct-26 06:33N 51°40' E 003°19'7 7.3
2014-Oct-26 05:32N 51°47' E 003°20'0 0.1
2014-Oct-26 04:29N 51°47' E 003°20'0 0.0
2014-Oct-26 03:32N 51°47' E 003°20'0 0.0
2014-Oct-26 02:32N 51°47' E 003°20'7 6.4
2014-Oct-26 01:22N 51°55' E 003°17'17 9.0
2014-Oct-25 23:32N 52°03' E 003°40'1111.1
2014-Oct-25 22:33N 52°01' E 003°58'1312.8
2014-Oct-25 21:33N 51°55' E 004°15'2 0.8
2014-Oct-25 19:22N 51°53' E 004°17'0 0.0
2014-Oct-25 18:22N 51°53' E 004°17'0 0.0
2014-Oct-25 16:16N 51°53' E 004°17'0 0.0
2014-Oct-25 15:28N 51°53' E 004°17'0 0.0
2014-Oct-25 14:10N 51°53' E 004°17'0 0.0
2014-Oct-25 13:22N 51°53' E 004°17'0 0.0
2014-Oct-25 12:10N 51°53' E 004°17'0 0.0
2014-Oct-25 11:28N 51°53' E 004°17'0 0.0
2014-Oct-25 10:22N 51°53' E 004°17'0 0.0
2014-Oct-25 09:04N 51°53' E 004°17'0 0.0
2014-Oct-25 08:28N 51°53' E 004°17'0 0.0
2014-Oct-25 07:28N 51°53' E 004°17'0 0.0
2014-Oct-25 06:22N 51°53' E 004°17'0 0.0
2014-Oct-25 05:28N 51°53' E 004°17'0 0.0
2014-Oct-25 01:33N 51°53' E 004°17'2 1.5
2014-Oct-25 00:33N 51°54' E 004°16'10 9.9
2014-Oct-24 23:33N 51°59' E 004°02'1010.3
2014-Oct-24 22:33N 51°59' E 003°45'8 7.5
2014-Oct-24 21:29N 51°57' E 003°33'4 3.9
2014-Oct-24 20:29N 51°53' E 003°29'0 0.0
2014-Oct-24 13:11N 51°54' E 003°30'0 0.0
2014-Oct-24 12:32N 51°54' E 003°30'0 0.0
2014-Oct-24 11:29N 51°54' E 003°30'0 0.1
2014-Oct-24 09:32N 51°53' E 003°29'0 0.0
2014-Oct-23 23:32N 51°54' E 003°30'0 0.0
2014-Oct-23 22:23N 51°54' E 003°30'0 0.1
2014-Oct-23 21:32N 51°53' E 003°29'0 0.0
2014-Oct-23 20:32N 51°53' E 003°29'0 0.0
2014-Oct-23 10:23N 51°53' E 003°30'0 0.1
2014-Oct-23 09:32N 51°53' E 003°29'0 0.0
2014-Oct-23 08:32N 51°53' E 003°29'0 0.0
2014-Oct-23 07:29N 51°53' E 003°29'0 0.0
2014-Oct-22 21:11N 51°53' E 003°29'0 0.0
2014-Oct-22 17:15N 51°53' E 003°29'2 2.3
2014-Oct-22 16:30N 51°53' E 003°27'4210.5
2014-Oct-22 12:32N 51°37' E 002°25'1110.9
2014-Oct-22 11:33N 51°28' E 002°13'10 9.8
2014-Oct-22 10:33N 51°19' E 002°08'9 9.2
2014-Oct-22 09:33N 51°12' E 001°59'9 9.3
2014-Oct-22 08:33N 51°07' E 001°47'8 7.8
2014-Oct-22 07:33N 51°01' E 001°38'7 6.9
2014-Oct-22 06:33N 50°56' E 001°31'6 6.2
2014-Oct-22 05:33N 50°50' E 001°27'7 6.6
2014-Oct-22 04:27N 50°43' E 001°24'  
Track history (hours):
 
Tides and Currents Weather Stations Pressure Air Temp Water Temp Dewpoint Dewpoint Depression Visibility Wind Speed Wind Dir Waves Ship Positions

LS Concorde

Last reported at 2014-Oct-30 23:33 UTC. Time now 2014-Oct-30 23:46 UTC.
Position N 49°28' E 000°07'.

Length 99 m; draft 5.2 m.

Type: Tanker. MMSI: 236329000.

Date/timePositionNaut miles runAvg speedWind from/ knotsBaromVisibWave heightAir tempDewpointWater temp
2014-Oct-30 23:33N 49°28' E 000°07'0 0.0
2014-Oct-30 22:33N 49°28' E 000°07'0 0.0
2014-Oct-30 21:33N 49°28' E 000°07'0 0.0
2014-Oct-30 20:33N 49°28' E 000°07'0 0.0
2014-Oct-30 19:30N 49°28' E 000°07'2 1.7
2014-Oct-30 18:33N 49°29' E 000°05'9 8.7
2014-Oct-30 17:33N 49°32' W 000°08'4 3.9
2014-Oct-30 16:33N 49°35' W 000°10'6 5.1
2014-Oct-30 15:21N 49°41' W 000°10'63 7.2
2014-Oct-30 06:33N 50°33' E 000°48'9 8.6
2014-Oct-30 05:33N 50°41' E 000°52'10 9.9
2014-Oct-30 04:33N 50°47' E 001°05'9 9.3
2014-Oct-30 03:33N 50°52' E 001°17'9 8.8
2014-Oct-30 02:33N 50°60' E 001°24'1010.4
2014-Oct-30 01:34N 51°07' E 001°36'1211.5
2014-Oct-30 00:33N 51°16' E 001°48'1212.4
2014-Oct-29 23:34N 51°26' E 002°01'1212.0
2014-Oct-29 22:33N 51°35' E 002°13'14 2.4
2014-Oct-29 16:33N 51°37' E 002°35'1211.7
2014-Oct-29 15:32N 51°26' E 002°38'0 0.0
2014-Oct-29 14:26N 51°26' E 002°39'0 0.1
2014-Oct-29 13:29N 51°25' E 002°38'0 0.0
2014-Oct-29 12:20N 51°25' E 002°38'0 0.0
2014-Oct-29 11:32N 51°25' E 002°38'0 0.0
2014-Oct-29 10:32N 51°25' E 002°38'0 0.0
2014-Oct-29 09:32N 51°25' E 002°38'0 0.1
2014-Oct-29 08:32N 51°26' E 002°38'0 0.0
2014-Oct-29 07:32N 51°26' E 002°39'0 0.0
2014-Oct-29 06:29N 51°26' E 002°39'0 0.0
2014-Oct-29 05:32N 51°26' E 002°39'0 0.0
2014-Oct-29 04:29N 51°26' E 002°39'0 0.0
2014-Oct-29 03:29N 51°26' E 002°39'0 0.0
2014-Oct-29 02:26N 51°26' E 002°39'0 0.0
2014-Oct-29 01:11N 51°26' E 002°39'0 0.2
2014-Oct-29 00:32N 51°25' E 002°38'0 0.0
2014-Oct-28 23:26N 51°25' E 002°38'0 0.0
2014-Oct-28 22:32N 51°25' E 002°38'0 0.1
2014-Oct-28 21:26N 51°26' E 002°38'0 0.0
2014-Oct-28 19:32N 51°26' E 002°38'0 0.0
2014-Oct-28 18:32N 51°26' E 002°39'3 2.7
2014-Oct-28 17:32N 51°23' E 002°41'1010.0
2014-Oct-28 16:33N 51°22' E 002°57'1210.6
2014-Oct-28 15:25N 51°24' E 003°16'8 9.7
2014-Oct-28 14:33N 51°25' E 003°29'8 8.1
2014-Oct-28 13:33N 51°24' E 003°42'6 6.1
2014-Oct-28 12:34N 51°20' E 003°49'4 3.8
2014-Oct-28 11:34N 51°16' E 003°50'4 0.1
2014-Oct-27 00:34N 51°12' E 003°48'3 2.5
2014-Oct-26 23:28N 51°09' E 003°47'0 0.0
2014-Oct-26 22:28N 51°09' E 003°47'0 0.0
2014-Oct-26 21:10N 51°09' E 003°47'0 0.0
2014-Oct-26 20:22N 51°09' E 003°47'0 0.0
2014-Oct-26 19:22N 51°09' E 003°47'0 0.0
2014-Oct-26 18:28N 51°09' E 003°47'0 0.0
2014-Oct-26 17:28N 51°09' E 003°47'0 0.0
2014-Oct-26 16:22N 51°09' E 003°47'0 0.0
2014-Oct-26 15:28N 51°09' E 003°47'0 0.0
2014-Oct-26 14:28N 51°09' E 003°47'0 0.0
2014-Oct-26 13:28N 51°09' E 003°47'0 0.0
2014-Oct-26 12:33N 51°09' E 003°47'2 2.3
2014-Oct-26 11:33N 51°11' E 003°48'7 6.5
2014-Oct-26 10:34N 51°18' E 003°50'2 2.4
2014-Oct-26 09:34N 51°20' E 003°49'9 8.7
2014-Oct-26 08:33N 51°26' E 003°39'8 8.3
2014-Oct-26 07:33N 51°30' E 003°27'1111.0
2014-Oct-26 06:33N 51°40' E 003°19'7 7.3
2014-Oct-26 05:32N 51°47' E 003°20'0 0.1
2014-Oct-26 04:29N 51°47' E 003°20'0 0.0
2014-Oct-26 03:32N 51°47' E 003°20'0 0.0
2014-Oct-26 02:32N 51°47' E 003°20'7 6.4
2014-Oct-26 01:22N 51°55' E 003°17'17 9.0
2014-Oct-25 23:32N 52°03' E 003°40'1111.1
2014-Oct-25 22:33N 52°01' E 003°58'1312.8
2014-Oct-25 21:33N 51°55' E 004°15'2 0.8
2014-Oct-25 19:22N 51°53' E 004°17'0 0.0
2014-Oct-25 18:22N 51°53' E 004°17'0 0.0
2014-Oct-25 16:16N 51°53' E 004°17'0 0.0
2014-Oct-25 15:28N 51°53' E 004°17'0 0.0
2014-Oct-25 14:10N 51°53' E 004°17'0 0.0
2014-Oct-25 13:22N 51°53' E 004°17'0 0.0
2014-Oct-25 12:10N 51°53' E 004°17'0 0.0
2014-Oct-25 11:28N 51°53' E 004°17'0 0.0
2014-Oct-25 10:22N 51°53' E 004°17'0 0.0
2014-Oct-25 09:04N 51°53' E 004°17'0 0.0
2014-Oct-25 08:28N 51°53' E 004°17'0 0.0
2014-Oct-25 07:28N 51°53' E 004°17'0 0.0
2014-Oct-25 06:22N 51°53' E 004°17'0 0.0
2014-Oct-25 05:28N 51°53' E 004°17'0 0.0
2014-Oct-25 01:33N 51°53' E 004°17'2 1.5
2014-Oct-25 00:33N 51°54' E 004°16'10 9.9
2014-Oct-24 23:33N 51°59' E 004°02'1010.3
2014-Oct-24 22:33N 51°59' E 003°45'8 7.5
2014-Oct-24 21:29N 51°57' E 003°33'4 3.9
2014-Oct-24 20:29N 51°53' E 003°29'0 0.0
2014-Oct-24 13:11N 51°54' E 003°30'0 0.0
2014-Oct-24 12:32N 51°54' E 003°30'0 0.0
2014-Oct-24 11:29N 51°54' E 003°30'0 0.1
2014-Oct-24 09:32N 51°53' E 003°29'0 0.0
2014-Oct-23 23:32N 51°54' E 003°30'0 0.0
2014-Oct-23 22:23N 51°54' E 003°30'0 0.1
2014-Oct-23 21:32N 51°53' E 003°29'0 0.0
2014-Oct-23 20:32N 51°53' E 003°29'0 0.0
2014-Oct-23 10:23N 51°53' E 003°30'0 0.1
2014-Oct-23 09:32N 51°53' E 003°29'0 0.0
2014-Oct-23 08:32N 51°53' E 003°29'0 0.0
2014-Oct-23 07:29N 51°53' E 003°29'0 0.0
2014-Oct-22 21:11N 51°53' E 003°29'0 0.0
2014-Oct-22 17:15N 51°53' E 003°29'2 2.3
2014-Oct-22 16:30N 51°53' E 003°27'4210.5
2014-Oct-22 12:32N 51°37' E 002°25'1110.9
2014-Oct-22 11:33N 51°28' E 002°13'10 9.8
2014-Oct-22 10:33N 51°19' E 002°08'9 9.2
2014-Oct-22 09:33N 51°12' E 001°59'9 9.3
2014-Oct-22 08:33N 51°07' E 001°47'8 7.8
2014-Oct-22 07:33N 51°01' E 001°38'7 6.9
2014-Oct-22 06:33N 50°56' E 001°31'6 6.2
2014-Oct-22 05:33N 50°50' E 001°27'7 6.6
2014-Oct-22 04:27N 50°43' E 001°24'  

Dump ship's entire track history